sensor_id;sensor_type;location;lat;lon;timestamp;P1;durP1;ratioP1;P2;durP2;ratioP2
11535;SDS011;5824;49.336;8.652;2023-12-20T00:01:46;10.33;;;5.70;;
11535;SDS011;5824;49.336;8.652;2023-12-20T00:04:12;10.33;;;5.30;;
11535;SDS011;5824;49.336;8.652;2023-12-20T00:06:37;10.93;;;4.87;;
11535;SDS011;5824;49.336;8.652;2023-12-20T00:09:03;11.23;;;5.37;;
11535;SDS011;5824;49.336;8.652;2023-12-20T00:11:28;10.23;;;4.90;;
11535;SDS011;5824;49.336;8.652;2023-12-20T00:13:54;10.53;;;5.30;;
11535;SDS011;5824;49.336;8.652;2023-12-20T00:16:19;10.67;;;5.13;;
11535;SDS011;5824;49.336;8.652;2023-12-20T00:18:45;8.80;;;5.37;;
11535;SDS011;5824;49.336;8.652;2023-12-20T00:21:10;11.23;;;5.47;;
11535;SDS011;5824;49.336;8.652;2023-12-20T00:23:36;13.43;;;5.03;;
11535;SDS011;5824;49.336;8.652;2023-12-20T00:26:02;8.60;;;4.73;;
11535;SDS011;5824;49.336;8.652;2023-12-20T00:28:27;11.00;;;5.50;;
11535;SDS011;5824;49.336;8.652;2023-12-20T00:30:53;12.60;;;5.17;;
11535;SDS011;5824;49.336;8.652;2023-12-20T00:33:18;10.97;;;5.00;;
11535;SDS011;5824;49.336;8.652;2023-12-20T00:35:44;10.00;;;4.90;;
11535;SDS011;5824;49.336;8.652;2023-12-20T00:38:09;8.30;;;4.70;;
11535;SDS011;5824;49.336;8.652;2023-12-20T00:40:36;9.23;;;4.53;;
11535;SDS011;5824;49.336;8.652;2023-12-20T00:43:01;9.50;;;4.83;;
11535;SDS011;5824;49.336;8.652;2023-12-20T00:45:27;8.37;;;5.20;;
11535;SDS011;5824;49.336;8.652;2023-12-20T00:47:53;11.23;;;4.90;;
11535;SDS011;5824;49.336;8.652;2023-12-20T00:50:18;8.70;;;5.10;;
11535;SDS011;5824;49.336;8.652;2023-12-20T00:52:44;7.63;;;4.83;;
11535;SDS011;5824;49.336;8.652;2023-12-20T00:55:09;12.37;;;5.70;;
11535;SDS011;5824;49.336;8.652;2023-12-20T00:57:35;8.43;;;4.73;;
11535;SDS011;5824;49.336;8.652;2023-12-20T01:00:00;10.93;;;5.63;;
11535;SDS011;5824;49.336;8.652;2023-12-20T01:02:26;12.20;;;6.23;;
11535;SDS011;5824;49.336;8.652;2023-12-20T01:04:52;12.87;;;6.23;;
11535;SDS011;5824;49.336;8.652;2023-12-20T01:07:17;12.20;;;6.87;;
11535;SDS011;5824;49.336;8.652;2023-12-20T01:09:43;12.53;;;6.90;;
11535;SDS011;5824;49.336;8.652;2023-12-20T01:12:08;11.57;;;7.03;;
11535;SDS011;5824;49.336;8.652;2023-12-20T01:14:34;13.50;;;7.23;;
11535;SDS011;5824;49.336;8.652;2023-12-20T01:16:59;13.00;;;7.27;;
11535;SDS011;5824;49.336;8.652;2023-12-20T01:19:25;13.13;;;7.83;;
11535;SDS011;5824;49.336;8.652;2023-12-20T01:21:52;10.10;;;6.53;;
11535;SDS011;5824;49.336;8.652;2023-12-20T01:24:17;15.13;;;7.73;;
11535;SDS011;5824;49.336;8.652;2023-12-20T01:26:43;13.77;;;6.80;;
11535;SDS011;5824;49.336;8.652;2023-12-20T01:29:08;10.73;;;6.37;;
11535;SDS011;5824;49.336;8.652;2023-12-20T01:31:34;11.40;;;6.83;;
11535;SDS011;5824;49.336;8.652;2023-12-20T01:34:00;12.33;;;6.20;;
11535;SDS011;5824;49.336;8.652;2023-12-20T01:36:25;10.00;;;6.40;;
11535;SDS011;5824;49.336;8.652;2023-12-20T01:38:51;10.83;;;6.10;;
11535;SDS011;5824;49.336;8.652;2023-12-20T01:41:17;11.90;;;7.13;;
11535;SDS011;5824;49.336;8.652;2023-12-20T01:43:42;11.37;;;6.00;;
11535;SDS011;5824;49.336;8.652;2023-12-20T01:46:08;9.80;;;5.67;;
11535;SDS011;5824;49.336;8.652;2023-12-20T01:48:34;10.93;;;5.90;;
11535;SDS011;5824;49.336;8.652;2023-12-20T01:51:00;8.50;;;5.07;;
11535;SDS011;5824;49.336;8.652;2023-12-20T01:53:26;10.90;;;5.73;;
11535;SDS011;5824;49.336;8.652;2023-12-20T01:55:54;9.63;;;5.57;;
11535;SDS011;5824;49.336;8.652;2023-12-20T01:58:21;7.23;;;4.60;;
11535;SDS011;5824;49.336;8.652;2023-12-20T02:00:47;7.37;;;4.50;;
11535;SDS011;5824;49.336;8.652;2023-12-20T02:03:13;6.10;;;4.00;;
11535;SDS011;5824;49.336;8.652;2023-12-20T02:05:39;10.30;;;4.70;;
11535;SDS011;5824;49.336;8.652;2023-12-20T02:08:06;6.50;;;4.37;;
11535;SDS011;5824;49.336;8.652;2023-12-20T02:10:32;8.07;;;4.00;;
11535;SDS011;5824;49.336;8.652;2023-12-20T02:12:57;7.10;;;4.50;;
11535;SDS011;5824;49.336;8.652;2023-12-20T02:15:23;7.97;;;4.63;;
11535;SDS011;5824;49.336;8.652;2023-12-20T02:17:49;7.83;;;4.10;;
11535;SDS011;5824;49.336;8.652;2023-12-20T02:20:15;8.03;;;4.33;;
11535;SDS011;5824;49.336;8.652;2023-12-20T02:22:40;7.37;;;4.40;;
11535;SDS011;5824;49.336;8.652;2023-12-20T02:25:06;7.20;;;4.10;;
11535;SDS011;5824;49.336;8.652;2023-12-20T02:27:32;7.57;;;4.70;;
11535;SDS011;5824;49.336;8.652;2023-12-20T02:29:58;7.63;;;4.50;;
11535;SDS011;5824;49.336;8.652;2023-12-20T02:32:24;6.63;;;4.23;;
11535;SDS011;5824;49.336;8.652;2023-12-20T02:34:54;6.23;;;3.80;;
11535;SDS011;5824;49.336;8.652;2023-12-20T02:37:20;8.13;;;4.50;;
11535;SDS011;5824;49.336;8.652;2023-12-20T02:39:45;7.83;;;4.70;;
11535;SDS011;5824;49.336;8.652;2023-12-20T02:42:11;8.23;;;4.73;;
11535;SDS011;5824;49.336;8.652;2023-12-20T02:44:36;7.00;;;4.50;;
11535;SDS011;5824;49.336;8.652;2023-12-20T02:47:02;7.17;;;4.20;;
11535;SDS011;5824;49.336;8.652;2023-12-20T02:49:28;10.23;;;5.20;;
11535;SDS011;5824;49.336;8.652;2023-12-20T02:51:53;7.57;;;4.20;;
11535;SDS011;5824;49.336;8.652;2023-12-20T02:54:19;10.03;;;4.97;;
11535;SDS011;5824;49.336;8.652;2023-12-20T02:56:44;7.90;;;4.20;;
11535;SDS011;5824;49.336;8.652;2023-12-20T02:59:10;8.83;;;4.13;;
11535;SDS011;5824;49.336;8.652;2023-12-20T03:01:36;13.47;;;3.77;;
11535;SDS011;5824;49.336;8.652;2023-12-20T03:04:07;5.50;;;3.40;;
11535;SDS011;5824;49.336;8.652;2023-12-20T03:06:33;6.43;;;4.10;;
11535;SDS011;5824;49.336;8.652;2023-12-20T03:08:58;9.87;;;4.13;;
11535;SDS011;5824;49.336;8.652;2023-12-20T03:11:27;7.50;;;3.50;;
11535;SDS011;5824;49.336;8.652;2023-12-20T03:13:53;4.50;;;3.17;;
11535;SDS011;5824;49.336;8.652;2023-12-20T03:16:19;6.70;;;3.30;;
11535;SDS011;5824;49.336;8.652;2023-12-20T03:18:44;9.03;;;3.97;;
11535;SDS011;5824;49.336;8.652;2023-12-20T03:21:10;6.30;;;3.20;;
11535;SDS011;5824;49.336;8.652;2023-12-20T03:23:35;5.17;;;3.47;;
11535;SDS011;5824;49.336;8.652;2023-12-20T03:26:01;4.40;;;3.10;;
11535;SDS011;5824;49.336;8.652;2023-12-20T03:28:27;6.47;;;3.17;;
11535;SDS011;5824;49.336;8.652;2023-12-20T03:30:52;5.40;;;3.67;;
11535;SDS011;5824;49.336;8.652;2023-12-20T03:33:18;5.13;;;3.60;;
11535;SDS011;5824;49.336;8.652;2023-12-20T03:35:43;4.90;;;3.20;;
11535;SDS011;5824;49.336;8.652;2023-12-20T03:38:09;4.70;;;3.27;;
11535;SDS011;5824;49.336;8.652;2023-12-20T03:40:35;7.03;;;3.27;;
11535;SDS011;5824;49.336;8.652;2023-12-20T03:43:00;3.83;;;3.10;;
11535;SDS011;5824;49.336;8.652;2023-12-20T03:45:26;4.03;;;3.03;;
11535;SDS011;5824;49.336;8.652;2023-12-20T03:47:51;7.77;;;3.30;;
11535;SDS011;5824;49.336;8.652;2023-12-20T03:50:22;5.03;;;3.03;;
11535;SDS011;5824;49.336;8.652;2023-12-20T03:52:48;5.10;;;3.33;;
11535;SDS011;5824;49.336;8.652;2023-12-20T03:55:13;4.57;;;3.00;;
11535;SDS011;5824;49.336;8.652;2023-12-20T03:57:39;4.60;;;3.30;;
11535;SDS011;5824;49.336;8.652;2023-12-20T04:00:05;4.40;;;2.97;;
11535;SDS011;5824;49.336;8.652;2023-12-20T04:02:35;5.43;;;3.00;;
11535;SDS011;5824;49.336;8.652;2023-12-20T04:05:04;4.80;;;2.80;;
11535;SDS011;5824;49.336;8.652;2023-12-20T04:07:30;4.00;;;2.73;;
11535;SDS011;5824;49.336;8.652;2023-12-20T04:09:56;5.10;;;3.20;;
11535;SDS011;5824;49.336;8.652;2023-12-20T04:12:21;5.33;;;3.10;;
11535;SDS011;5824;49.336;8.652;2023-12-20T04:14:47;4.07;;;2.97;;
11535;SDS011;5824;49.336;8.652;2023-12-20T04:17:12;4.73;;;2.90;;
11535;SDS011;5824;49.336;8.652;2023-12-20T04:19:40;5.43;;;3.03;;
11535;SDS011;5824;49.336;8.652;2023-12-20T04:22:06;4.60;;;2.80;;
11535;SDS011;5824;49.336;8.652;2023-12-20T04:24:31;5.17;;;3.50;;
11535;SDS011;5824;49.336;8.652;2023-12-20T04:26:57;5.03;;;2.90;;
11535;SDS011;5824;49.336;8.652;2023-12-20T04:29:22;5.90;;;2.90;;
11535;SDS011;5824;49.336;8.652;2023-12-20T04:31:48;6.50;;;3.37;;
11535;SDS011;5824;49.336;8.652;2023-12-20T04:34:16;5.93;;;3.00;;
11535;SDS011;5824;49.336;8.652;2023-12-20T04:36:41;4.57;;;3.00;;
11535;SDS011;5824;49.336;8.652;2023-12-20T04:39:07;4.80;;;2.80;;
11535;SDS011;5824;49.336;8.652;2023-12-20T04:41:33;4.57;;;2.80;;
11535;SDS011;5824;49.336;8.652;2023-12-20T04:43:58;6.63;;;2.93;;
11535;SDS011;5824;49.336;8.652;2023-12-20T04:46:24;5.13;;;2.97;;
11535;SDS011;5824;49.336;8.652;2023-12-20T04:48:49;5.70;;;3.20;;
11535;SDS011;5824;49.336;8.652;2023-12-20T04:51:15;4.23;;;2.80;;
11535;SDS011;5824;49.336;8.652;2023-12-20T04:53:40;4.40;;;3.10;;
11535;SDS011;5824;49.336;8.652;2023-12-20T04:56:06;4.67;;;3.00;;
11535;SDS011;5824;49.336;8.652;2023-12-20T04:58:31;8.20;;;3.43;;
11535;SDS011;5824;49.336;8.652;2023-12-20T05:00:57;4.87;;;2.97;;
11535;SDS011;5824;49.336;8.652;2023-12-20T05:03:22;4.50;;;2.90;;
11535;SDS011;5824;49.336;8.652;2023-12-20T05:05:47;5.03;;;2.90;;
11535;SDS011;5824;49.336;8.652;2023-12-20T05:08:13;4.00;;;2.83;;
11535;SDS011;5824;49.336;8.652;2023-12-20T05:10:38;4.00;;;2.90;;
11535;SDS011;5824;49.336;8.652;2023-12-20T05:13:05;4.23;;;3.10;;
11535;SDS011;5824;49.336;8.652;2023-12-20T05:15:30;4.60;;;3.20;;
11535;SDS011;5824;49.336;8.652;2023-12-20T05:17:56;4.00;;;2.97;;
11535;SDS011;5824;49.336;8.652;2023-12-20T05:20:22;3.47;;;2.77;;
11535;SDS011;5824;49.336;8.652;2023-12-20T05:22:48;4.10;;;2.87;;
11535;SDS011;5824;49.336;8.652;2023-12-20T05:25:13;4.33;;;2.93;;
11535;SDS011;5824;49.336;8.652;2023-12-20T05:27:39;6.77;;;2.93;;
11535;SDS011;5824;49.336;8.652;2023-12-20T05:30:05;4.40;;;2.70;;
11535;SDS011;5824;49.336;8.652;2023-12-20T05:32:31;4.83;;;3.20;;
11535;SDS011;5824;49.336;8.652;2023-12-20T05:34:56;3.87;;;2.90;;
11535;SDS011;5824;49.336;8.652;2023-12-20T05:37:22;6.70;;;3.40;;
11535;SDS011;5824;49.336;8.652;2023-12-20T05:39:47;5.43;;;3.63;;
11535;SDS011;5824;49.336;8.652;2023-12-20T05:42:13;5.03;;;2.80;;
11535;SDS011;5824;49.336;8.652;2023-12-20T05:44:38;5.10;;;3.43;;
11535;SDS011;5824;49.336;8.652;2023-12-20T05:47:04;4.23;;;3.00;;
11535;SDS011;5824;49.336;8.652;2023-12-20T05:49:29;5.90;;;3.80;;
11535;SDS011;5824;49.336;8.652;2023-12-20T05:51:55;4.10;;;2.57;;
11535;SDS011;5824;49.336;8.652;2023-12-20T05:54:20;5.53;;;3.30;;
11535;SDS011;5824;49.336;8.652;2023-12-20T05:56:46;4.33;;;3.57;;
11535;SDS011;5824;49.336;8.652;2023-12-20T05:59:12;3.60;;;2.70;;
11535;SDS011;5824;49.336;8.652;2023-12-20T06:01:38;3.93;;;2.97;;
11535;SDS011;5824;49.336;8.652;2023-12-20T06:04:04;3.90;;;2.70;;
11535;SDS011;5824;49.336;8.652;2023-12-20T06:06:29;4.63;;;3.20;;
11535;SDS011;5824;49.336;8.652;2023-12-20T06:08:55;3.70;;;2.60;;
11535;SDS011;5824;49.336;8.652;2023-12-20T06:11:21;5.40;;;2.80;;
11535;SDS011;5824;49.336;8.652;2023-12-20T06:13:46;4.40;;;2.63;;
11535;SDS011;5824;49.336;8.652;2023-12-20T06:16:13;4.00;;;2.77;;
11535;SDS011;5824;49.336;8.652;2023-12-20T06:18:39;4.40;;;2.80;;
11535;SDS011;5824;49.336;8.652;2023-12-20T06:21:05;4.23;;;3.17;;
11535;SDS011;5824;49.336;8.652;2023-12-20T06:23:32;4.43;;;2.90;;
11535;SDS011;5824;49.336;8.652;2023-12-20T06:25:57;4.30;;;2.60;;
11535;SDS011;5824;49.336;8.652;2023-12-20T06:28:23;6.80;;;3.00;;
11535;SDS011;5824;49.336;8.652;2023-12-20T06:30:48;5.27;;;3.03;;
11535;SDS011;5824;49.336;8.652;2023-12-20T06:33:14;5.83;;;3.30;;
11535;SDS011;5824;49.336;8.652;2023-12-20T06:35:40;4.30;;;3.33;;
11535;SDS011;5824;49.336;8.652;2023-12-20T06:38:06;5.70;;;3.70;;
11535;SDS011;5824;49.336;8.652;2023-12-20T06:40:31;4.43;;;2.70;;
11535;SDS011;5824;49.336;8.652;2023-12-20T06:42:57;4.40;;;3.00;;
11535;SDS011;5824;49.336;8.652;2023-12-20T06:45:22;7.33;;;2.80;;
11535;SDS011;5824;49.336;8.652;2023-12-20T06:47:48;6.20;;;3.40;;
11535;SDS011;5824;49.336;8.652;2023-12-20T06:50:13;5.60;;;3.40;;
11535;SDS011;5824;49.336;8.652;2023-12-20T06:52:39;4.80;;;3.10;;
11535;SDS011;5824;49.336;8.652;2023-12-20T06:55:04;5.97;;;3.27;;
11535;SDS011;5824;49.336;8.652;2023-12-20T06:57:30;7.10;;;3.20;;
11535;SDS011;5824;49.336;8.652;2023-12-20T06:59:56;4.53;;;3.10;;
11535;SDS011;5824;49.336;8.652;2023-12-20T07:02:22;6.50;;;2.87;;
11535;SDS011;5824;49.336;8.652;2023-12-20T07:04:48;6.60;;;3.10;;
11535;SDS011;5824;49.336;8.652;2023-12-20T07:07:13;6.03;;;2.87;;
11535;SDS011;5824;49.336;8.652;2023-12-20T07:09:39;5.13;;;3.13;;
11535;SDS011;5824;49.336;8.652;2023-12-20T07:12:07;4.87;;;3.03;;
11535;SDS011;5824;49.336;8.652;2023-12-20T07:14:33;4.37;;;3.13;;
11535;SDS011;5824;49.336;8.652;2023-12-20T07:16:58;5.93;;;3.20;;
11535;SDS011;5824;49.336;8.652;2023-12-20T07:19:24;4.80;;;3.00;;
11535;SDS011;5824;49.336;8.652;2023-12-20T07:21:49;4.70;;;3.17;;
11535;SDS011;5824;49.336;8.652;2023-12-20T07:24:15;4.13;;;3.10;;
11535;SDS011;5824;49.336;8.652;2023-12-20T07:26:40;4.70;;;2.90;;
11535;SDS011;5824;49.336;8.652;2023-12-20T07:29:06;5.53;;;3.70;;
11535;SDS011;5824;49.336;8.652;2023-12-20T07:31:31;7.27;;;4.13;;
11535;SDS011;5824;49.336;8.652;2023-12-20T07:33:57;4.57;;;3.17;;
11535;SDS011;5824;49.336;8.652;2023-12-20T07:36:23;3.87;;;2.67;;
11535;SDS011;5824;49.336;8.652;2023-12-20T07:38:48;4.90;;;3.03;;
11535;SDS011;5824;49.336;8.652;2023-12-20T07:41:13;4.63;;;3.03;;
11535;SDS011;5824;49.336;8.652;2023-12-20T07:43:41;5.50;;;2.93;;
11535;SDS011;5824;49.336;8.652;2023-12-20T07:46:07;6.13;;;3.30;;
11535;SDS011;5824;49.336;8.652;2023-12-20T07:48:36;5.17;;;3.77;;
11535;SDS011;5824;49.336;8.652;2023-12-20T07:51:02;8.37;;;4.07;;
11535;SDS011;5824;49.336;8.652;2023-12-20T07:53:27;4.53;;;3.17;;
11535;SDS011;5824;49.336;8.652;2023-12-20T07:55:53;5.33;;;3.60;;
11535;SDS011;5824;49.336;8.652;2023-12-20T07:58:20;5.17;;;3.70;;
11535;SDS011;5824;49.336;8.652;2023-12-20T08:00:45;6.43;;;3.73;;
11535;SDS011;5824;49.336;8.652;2023-12-20T08:03:11;5.30;;;3.60;;
11535;SDS011;5824;49.336;8.652;2023-12-20T08:05:37;5.40;;;3.70;;
11535;SDS011;5824;49.336;8.652;2023-12-20T08:08:05;6.63;;;3.97;;
11535;SDS011;5824;49.336;8.652;2023-12-20T08:10:31;4.07;;;3.07;;
11535;SDS011;5824;49.336;8.652;2023-12-20T08:12:57;5.67;;;3.50;;
11535;SDS011;5824;49.336;8.652;2023-12-20T08:15:22;5.40;;;3.30;;
11535;SDS011;5824;49.336;8.652;2023-12-20T08:17:48;3.97;;;2.77;;
11535;SDS011;5824;49.336;8.652;2023-12-20T08:20:15;5.53;;;3.20;;
11535;SDS011;5824;49.336;8.652;2023-12-20T08:22:41;5.30;;;3.07;;
11535;SDS011;5824;49.336;8.652;2023-12-20T08:25:07;8.20;;;3.00;;
11535;SDS011;5824;49.336;8.652;2023-12-20T08:27:33;5.17;;;3.50;;
11535;SDS011;5824;49.336;8.652;2023-12-20T08:30:01;5.20;;;3.30;;
11535;SDS011;5824;49.336;8.652;2023-12-20T08:32:26;7.10;;;2.90;;
11535;SDS011;5824;49.336;8.652;2023-12-20T08:34:52;4.37;;;2.90;;
11535;SDS011;5824;49.336;8.652;2023-12-20T08:37:17;5.83;;;3.20;;
11535;SDS011;5824;49.336;8.652;2023-12-20T08:39:43;3.67;;;2.20;;
11535;SDS011;5824;49.336;8.652;2023-12-20T08:42:09;3.70;;;2.30;;
11535;SDS011;5824;49.336;8.652;2023-12-20T08:44:34;4.10;;;2.80;;
11535;SDS011;5824;49.336;8.652;2023-12-20T08:47:00;2.27;;;2.07;;
11535;SDS011;5824;49.336;8.652;2023-12-20T08:49:25;2.70;;;2.07;;
11535;SDS011;5824;49.336;8.652;2023-12-20T08:51:52;4.00;;;2.70;;
11535;SDS011;5824;49.336;8.652;2023-12-20T08:54:18;6.40;;;2.90;;
11535;SDS011;5824;49.336;8.652;2023-12-20T08:56:44;4.07;;;2.97;;
11535;SDS011;5824;49.336;8.652;2023-12-20T08:59:11;4.60;;;3.30;;
11535;SDS011;5824;49.336;8.652;2023-12-20T09:01:37;11.13;;;3.70;;
11535;SDS011;5824;49.336;8.652;2023-12-20T09:04:02;4.73;;;3.30;;
11535;SDS011;5824;49.336;8.652;2023-12-20T09:06:28;7.03;;;3.73;;
11535;SDS011;5824;49.336;8.652;2023-12-20T09:08:53;7.03;;;3.93;;
11535;SDS011;5824;49.336;8.652;2023-12-20T09:11:19;5.23;;;3.80;;
11535;SDS011;5824;49.336;8.652;2023-12-20T09:13:44;5.87;;;4.20;;
11535;SDS011;5824;49.336;8.652;2023-12-20T09:16:10;6.63;;;3.73;;
11535;SDS011;5824;49.336;8.652;2023-12-20T09:18:35;5.77;;;3.80;;
11535;SDS011;5824;49.336;8.652;2023-12-20T09:21:01;5.00;;;3.37;;
11535;SDS011;5824;49.336;8.652;2023-12-20T09:23:27;5.87;;;3.60;;
11535;SDS011;5824;49.336;8.652;2023-12-20T09:25:52;6.57;;;3.60;;
11535;SDS011;5824;49.336;8.652;2023-12-20T09:28:18;4.50;;;3.13;;
11535;SDS011;5824;49.336;8.652;2023-12-20T09:30:43;5.50;;;3.30;;
11535;SDS011;5824;49.336;8.652;2023-12-20T09:33:11;5.13;;;3.07;;
11535;SDS011;5824;49.336;8.652;2023-12-20T09:35:36;5.83;;;3.30;;
11535;SDS011;5824;49.336;8.652;2023-12-20T09:38:02;5.80;;;3.67;;
11535;SDS011;5824;49.336;8.652;2023-12-20T09:40:27;10.00;;;2.97;;
11535;SDS011;5824;49.336;8.652;2023-12-20T09:42:57;3.40;;;2.60;;
11535;SDS011;5824;49.336;8.652;2023-12-20T09:45:28;3.30;;;2.70;;
11535;SDS011;5824;49.336;8.652;2023-12-20T09:47:55;5.87;;;2.97;;
11535;SDS011;5824;49.336;8.652;2023-12-20T09:50:22;4.77;;;2.50;;
11535;SDS011;5824;49.336;8.652;2023-12-20T09:52:49;6.80;;;3.00;;
11535;SDS011;5824;49.336;8.652;2023-12-20T09:55:17;4.20;;;2.37;;
11535;SDS011;5824;49.336;8.652;2023-12-20T09:57:44;3.37;;;2.30;;
11535;SDS011;5824;49.336;8.652;2023-12-20T10:00:10;6.73;;;2.23;;
11535;SDS011;5824;49.336;8.652;2023-12-20T10:02:36;6.47;;;2.67;;
11535;SDS011;5824;49.336;8.652;2023-12-20T10:05:06;4.03;;;2.37;;
11535;SDS011;5824;49.336;8.652;2023-12-20T10:07:36;3.87;;;2.20;;
11535;SDS011;5824;49.336;8.652;2023-12-20T10:10:01;4.53;;;2.10;;
11535;SDS011;5824;49.336;8.652;2023-12-20T10:12:27;2.67;;;1.80;;
11535;SDS011;5824;49.336;8.652;2023-12-20T10:14:52;6.10;;;2.17;;
11535;SDS011;5824;49.336;8.652;2023-12-20T10:17:18;5.33;;;2.20;;
11535;SDS011;5824;49.336;8.652;2023-12-20T10:19:43;3.90;;;2.27;;
11535;SDS011;5824;49.336;8.652;2023-12-20T10:22:09;4.60;;;2.20;;
11535;SDS011;5824;49.336;8.652;2023-12-20T10:24:35;7.00;;;2.60;;
11535;SDS011;5824;49.336;8.652;2023-12-20T10:27:01;4.17;;;2.10;;
11535;SDS011;5824;49.336;8.652;2023-12-20T10:29:31;8.53;;;2.17;;
11535;SDS011;5824;49.336;8.652;2023-12-20T10:34:51;6.30;;;2.40;;
11535;SDS011;5824;49.336;8.652;2023-12-20T10:37:17;7.70;;;2.60;;
11535;SDS011;5824;49.336;8.652;2023-12-20T10:39:43;8.70;;;2.27;;
11535;SDS011;5824;49.336;8.652;2023-12-20T10:42:12;5.00;;;2.50;;
11535;SDS011;5824;49.336;8.652;2023-12-20T10:44:39;4.67;;;2.10;;
11535;SDS011;5824;49.336;8.652;2023-12-20T10:47:04;5.10;;;2.30;;
11535;SDS011;5824;49.336;8.652;2023-12-20T10:49:31;5.10;;;2.10;;
11535;SDS011;5824;49.336;8.652;2023-12-20T10:51:58;5.70;;;2.20;;
11535;SDS011;5824;49.336;8.652;2023-12-20T10:54:27;4.90;;;2.40;;
11535;SDS011;5824;49.336;8.652;2023-12-20T10:56:52;7.87;;;2.40;;
11535;SDS011;5824;49.336;8.652;2023-12-20T10:59:19;5.50;;;1.50;;
11535;SDS011;5824;49.336;8.652;2023-12-20T11:01:47;3.43;;;1.70;;
11535;SDS011;5824;49.336;8.652;2023-12-20T11:04:15;5.53;;;1.97;;
11535;SDS011;5824;49.336;8.652;2023-12-20T11:06:49;3.07;;;1.80;;
11535;SDS011;5824;49.336;8.652;2023-12-20T11:09:23;4.53;;;1.90;;
11535;SDS011;5824;49.336;8.652;2023-12-20T11:14:51;9.63;;;2.50;;
11535;SDS011;5824;49.336;8.652;2023-12-20T11:17:16;5.33;;;2.07;;
11535;SDS011;5824;49.336;8.652;2023-12-20T11:22:32;5.10;;;1.90;;
11535;SDS011;5824;49.336;8.652;2023-12-20T11:25:02;4.40;;;1.97;;
11535;SDS011;5824;49.336;8.652;2023-12-20T11:27:47;4.80;;;1.60;;
11535;SDS011;5824;49.336;8.652;2023-12-20T11:30:40;3.10;;;1.67;;
11535;SDS011;5824;49.336;8.652;2023-12-20T11:33:07;3.90;;;1.90;;
11535;SDS011;5824;49.336;8.652;2023-12-20T11:35:33;4.07;;;2.60;;
11535;SDS011;5824;49.336;8.652;2023-12-20T11:38:00;2.33;;;1.60;;
11535;SDS011;5824;49.336;8.652;2023-12-20T11:40:26;8.97;;;1.80;;
11535;SDS011;5824;49.336;8.652;2023-12-20T11:42:51;4.47;;;1.63;;
11535;SDS011;5824;49.336;8.652;2023-12-20T11:45:20;4.50;;;2.40;;
11535;SDS011;5824;49.336;8.652;2023-12-20T11:47:47;3.50;;;2.30;;
11535;SDS011;5824;49.336;8.652;2023-12-20T11:50:14;3.50;;;1.80;;
11535;SDS011;5824;49.336;8.652;2023-12-20T11:52:40;6.80;;;1.80;;
11535;SDS011;5824;49.336;8.652;2023-12-20T11:55:06;15.80;;;2.30;;
11535;SDS011;5824;49.336;8.652;2023-12-20T11:57:32;6.50;;;2.00;;
11535;SDS011;5824;49.336;8.652;2023-12-20T11:59:58;4.37;;;2.60;;
11535;SDS011;5824;49.336;8.652;2023-12-20T12:02:24;4.87;;;1.83;;
11535;SDS011;5824;49.336;8.652;2023-12-20T12:04:49;6.00;;;2.47;;
11535;SDS011;5824;49.336;8.652;2023-12-20T12:07:17;6.80;;;2.47;;
11535;SDS011;5824;49.336;8.652;2023-12-20T12:09:43;3.03;;;2.03;;
11535;SDS011;5824;49.336;8.652;2023-12-20T12:12:10;4.17;;;2.47;;
11535;SDS011;5824;49.336;8.652;2023-12-20T12:14:37;8.80;;;3.10;;
11535;SDS011;5824;49.336;8.652;2023-12-20T12:17:03;4.60;;;2.40;;
11535;SDS011;5824;49.336;8.652;2023-12-20T12:19:29;2.73;;;2.00;;
11535;SDS011;5824;49.336;8.652;2023-12-20T12:22:13;4.70;;;2.20;;
11535;SDS011;5824;49.336;8.652;2023-12-20T12:24:41;5.32;;;2.50;;
11535;SDS011;5824;49.336;8.652;2023-12-20T12:27:07;3.93;;;2.27;;
11535;SDS011;5824;49.336;8.652;2023-12-20T12:29:33;6.57;;;3.07;;
11535;SDS011;5824;49.336;8.652;2023-12-20T12:32:00;3.40;;;2.23;;
11535;SDS011;5824;49.336;8.652;2023-12-20T12:34:28;4.60;;;1.97;;
11535;SDS011;5824;49.336;8.652;2023-12-20T12:36:54;6.53;;;2.63;;
11535;SDS011;5824;49.336;8.652;2023-12-20T12:39:21;3.87;;;2.20;;
11535;SDS011;5824;49.336;8.652;2023-12-20T12:41:50;8.57;;;2.43;;
11535;SDS011;5824;49.336;8.652;2023-12-20T12:44:15;7.43;;;3.00;;
11535;SDS011;5824;49.336;8.652;2023-12-20T12:46:41;5.63;;;2.03;;
11535;SDS011;5824;49.336;8.652;2023-12-20T12:49:06;9.90;;;2.53;;
11535;SDS011;5824;49.336;8.652;2023-12-20T12:51:32;6.37;;;2.70;;
11535;SDS011;5824;49.336;8.652;2023-12-20T12:53:57;6.77;;;2.30;;
11535;SDS011;5824;49.336;8.652;2023-12-20T12:56:23;6.47;;;2.80;;
11535;SDS011;5824;49.336;8.652;2023-12-20T12:58:48;5.43;;;2.50;;
11535;SDS011;5824;49.336;8.652;2023-12-20T13:01:14;4.20;;;2.50;;
11535;SDS011;5824;49.336;8.652;2023-12-20T13:03:40;5.20;;;2.23;;
11535;SDS011;5824;49.336;8.652;2023-12-20T13:06:05;6.30;;;2.63;;
11535;SDS011;5824;49.336;8.652;2023-12-20T13:08:33;6.93;;;2.33;;
11535;SDS011;5824;49.336;8.652;2023-12-20T13:10:59;6.63;;;2.70;;
11535;SDS011;5824;49.336;8.652;2023-12-20T13:13:26;4.70;;;2.50;;
11535;SDS011;5824;49.336;8.652;2023-12-20T13:15:52;5.20;;;2.63;;
11535;SDS011;5824;49.336;8.652;2023-12-20T13:18:20;6.20;;;2.53;;
11535;SDS011;5824;49.336;8.652;2023-12-20T13:20:45;4.50;;;2.30;;
11535;SDS011;5824;49.336;8.652;2023-12-20T13:23:11;10.43;;;2.50;;
11535;SDS011;5824;49.336;8.652;2023-12-20T13:25:37;4.80;;;2.60;;
11535;SDS011;5824;49.336;8.652;2023-12-20T13:28:03;7.40;;;2.67;;
11535;SDS011;5824;49.336;8.652;2023-12-20T13:30:28;6.90;;;2.70;;
11535;SDS011;5824;49.336;8.652;2023-12-20T13:32:54;11.87;;;3.10;;
11535;SDS011;5824;49.336;8.652;2023-12-20T13:35:20;5.10;;;2.03;;
11535;SDS011;5824;49.336;8.652;2023-12-20T13:37:45;5.97;;;2.17;;
11535;SDS011;5824;49.336;8.652;2023-12-20T13:40:11;5.80;;;2.50;;
11535;SDS011;5824;49.336;8.652;2023-12-20T13:42:37;4.40;;;2.27;;
11535;SDS011;5824;49.336;8.652;2023-12-20T13:45:03;7.13;;;1.97;;
11535;SDS011;5824;49.336;8.652;2023-12-20T13:47:29;8.93;;;2.33;;
11535;SDS011;5824;49.336;8.652;2023-12-20T13:49:55;7.37;;;2.33;;
11535;SDS011;5824;49.336;8.652;2023-12-20T13:52:21;5.00;;;2.10;;
11535;SDS011;5824;49.336;8.652;2023-12-20T13:54:47;5.73;;;2.03;;
11535;SDS011;5824;49.336;8.652;2023-12-20T13:57:12;4.30;;;2.20;;
11535;SDS011;5824;49.336;8.652;2023-12-20T13:59:38;6.33;;;1.83;;
11535;SDS011;5824;49.336;8.652;2023-12-20T14:02:03;6.90;;;2.63;;
11535;SDS011;5824;49.336;8.652;2023-12-20T14:04:29;9.03;;;2.50;;
11535;SDS011;5824;49.336;8.652;2023-12-20T14:06:56;3.33;;;2.03;;
11535;SDS011;5824;49.336;8.652;2023-12-20T14:09:21;6.33;;;2.73;;
11535;SDS011;5824;49.336;8.652;2023-12-20T14:11:47;3.10;;;2.23;;
11535;SDS011;5824;49.336;8.652;2023-12-20T14:14:12;6.40;;;2.10;;
11535;SDS011;5824;49.336;8.652;2023-12-20T14:16:38;5.83;;;2.47;;
11535;SDS011;5824;49.336;8.652;2023-12-20T14:19:03;9.37;;;2.40;;
11535;SDS011;5824;49.336;8.652;2023-12-20T14:21:32;2.80;;;2.10;;
11535;SDS011;5824;49.336;8.652;2023-12-20T14:23:58;7.43;;;2.20;;
11535;SDS011;5824;49.336;8.652;2023-12-20T14:26:23;5.53;;;2.10;;
11535;SDS011;5824;49.336;8.652;2023-12-20T14:28:49;7.03;;;2.77;;
11535;SDS011;5824;49.336;8.652;2023-12-20T14:31:14;7.60;;;2.40;;
11535;SDS011;5824;49.336;8.652;2023-12-20T14:33:40;4.30;;;2.13;;
11535;SDS011;5824;49.336;8.652;2023-12-20T14:36:07;4.60;;;2.30;;
11535;SDS011;5824;49.336;8.652;2023-12-20T14:38:33;5.00;;;2.23;;
11535;SDS011;5824;49.336;8.652;2023-12-20T14:40:58;3.80;;;2.50;;
11535;SDS011;5824;49.336;8.652;2023-12-20T14:43:24;10.33;;;2.70;;
11535;SDS011;5824;49.336;8.652;2023-12-20T14:45:51;3.70;;;1.53;;
11535;SDS011;5824;49.336;8.652;2023-12-20T14:48:17;8.37;;;2.00;;
11535;SDS011;5824;49.336;8.652;2023-12-20T14:50:43;7.30;;;1.97;;
11535;SDS011;5824;49.336;8.652;2023-12-20T14:53:09;4.80;;;1.90;;
11535;SDS011;5824;49.336;8.652;2023-12-20T14:55:35;3.37;;;2.13;;
11535;SDS011;5824;49.336;8.652;2023-12-20T14:58:01;4.17;;;2.07;;
11535;SDS011;5824;49.336;8.652;2023-12-20T15:00:26;3.70;;;2.10;;
11535;SDS011;5824;49.336;8.652;2023-12-20T15:02:52;2.33;;;1.83;;